sensor_id;sensor_type;location;lat;lon;timestamp;temperature;humidity
17399;DHT22;8817;48.170;8.592;2023-04-23T00:02:01;16.70;45.90
17399;DHT22;8817;48.170;8.592;2023-04-23T00:04:29;16.70;45.90
17399;DHT22;8817;48.170;8.592;2023-04-23T00:06:59;16.70;46.00
17399;DHT22;8817;48.170;8.592;2023-04-23T00:09:29;16.70;46.10
17399;DHT22;8817;48.170;8.592;2023-04-23T00:11:57;16.60;46.00
17399;DHT22;8817;48.170;8.592;2023-04-23T00:14:25;16.70;46.10
17399;DHT22;8817;48.170;8.592;2023-04-23T00:16:52;16.70;46.10
17399;DHT22;8817;48.170;8.592;2023-04-23T00:19:19;16.60;46.10
17399;DHT22;8817;48.170;8.592;2023-04-23T00:21:46;16.60;46.70
17399;DHT22;8817;48.170;8.592;2023-04-23T00:24:14;16.60;46.10
17399;DHT22;8817;48.170;8.592;2023-04-23T00:26:41;16.60;46.20
17399;DHT22;8817;48.170;8.592;2023-04-23T00:29:08;16.60;46.20
17399;DHT22;8817;48.170;8.592;2023-04-23T00:31:35;16.60;46.20
17399;DHT22;8817;48.170;8.592;2023-04-23T00:34:02;16.60;46.30
17399;DHT22;8817;48.170;8.592;2023-04-23T00:36:29;16.60;46.40
17399;DHT22;8817;48.170;8.592;2023-04-23T00:38:56;16.60;46.40
17399;DHT22;8817;48.170;8.592;2023-04-23T00:41:26;16.60;46.40
17399;DHT22;8817;48.170;8.592;2023-04-23T00:43:53;16.60;46.40
17399;DHT22;8817;48.170;8.592;2023-04-23T00:46:21;16.60;46.40
17399;DHT22;8817;48.170;8.592;2023-04-23T00:48:50;16.60;46.40
17399;DHT22;8817;48.170;8.592;2023-04-23T00:51:17;16.60;46.40
17399;DHT22;8817;48.170;8.592;2023-04-23T00:53:44;16.60;46.40
17399;DHT22;8817;48.170;8.592;2023-04-23T00:56:11;16.60;46.50
17399;DHT22;8817;48.170;8.592;2023-04-23T00:58:40;16.60;46.50
17399;DHT22;8817;48.170;8.592;2023-04-23T01:01:07;16.60;46.50
17399;DHT22;8817;48.170;8.592;2023-04-23T01:03:35;16.60;46.50
17399;DHT22;8817;48.170;8.592;2023-04-23T01:06:04;16.60;46.60
17399;DHT22;8817;48.170;8.592;2023-04-23T01:08:31;16.60;46.60
17399;DHT22;8817;48.170;8.592;2023-04-23T01:10:59;16.60;46.60
17399;DHT22;8817;48.170;8.592;2023-04-23T01:13:28;16.60;46.60
17399;DHT22;8817;48.170;8.592;2023-04-23T01:15:57;16.60;46.60
17399;DHT22;8817;48.170;8.592;2023-04-23T01:18:24;16.60;46.60
17399;DHT22;8817;48.170;8.592;2023-04-23T01:20:51;16.60;46.70
17399;DHT22;8817;48.170;8.592;2023-04-23T01:23:19;16.60;46.70
17399;DHT22;8817;48.170;8.592;2023-04-23T01:25:46;16.60;46.70
17399;DHT22;8817;48.170;8.592;2023-04-23T01:28:13;16.60;46.70
17399;DHT22;8817;48.170;8.592;2023-04-23T01:30:41;16.60;46.70
17399;DHT22;8817;48.170;8.592;2023-04-23T01:33:09;16.50;46.70
17399;DHT22;8817;48.170;8.592;2023-04-23T01:35:38;16.50;46.70
17399;DHT22;8817;48.170;8.592;2023-04-23T01:38:07;16.60;46.70
17399;DHT22;8817;48.170;8.592;2023-04-23T01:40:36;16.50;46.70
17399;DHT22;8817;48.170;8.592;2023-04-23T01:43:03;16.50;46.70
17399;DHT22;8817;48.170;8.592;2023-04-23T01:45:30;16.50;46.70
17399;DHT22;8817;48.170;8.592;2023-04-23T01:47:57;16.50;46.70
17399;DHT22;8817;48.170;8.592;2023-04-23T01:50:25;16.50;46.70
17399;DHT22;8817;48.170;8.592;2023-04-23T01:52:53;16.50;46.80
17399;DHT22;8817;48.170;8.592;2023-04-23T01:55:20;16.40;46.80
17399;DHT22;8817;48.170;8.592;2023-04-23T01:57:49;16.40;46.80
17399;DHT22;8817;48.170;8.592;2023-04-23T02:00:17;16.40;46.90
17399;DHT22;8817;48.170;8.592;2023-04-23T02:02:45;16.40;46.90
17399;DHT22;8817;48.170;8.592;2023-04-23T02:05:14;16.40;46.90
17399;DHT22;8817;48.170;8.592;2023-04-23T02:07:43;16.30;46.80
17399;DHT22;8817;48.170;8.592;2023-04-23T02:10:11;16.40;46.90
17399;DHT22;8817;48.170;8.592;2023-04-23T02:12:38;16.40;46.90
17399;DHT22;8817;48.170;8.592;2023-04-23T02:15:08;16.40;47.50
17399;DHT22;8817;48.170;8.592;2023-04-23T02:17:35;16.40;47.00
17399;DHT22;8817;48.170;8.592;2023-04-23T02:20:05;16.40;47.00
17399;DHT22;8817;48.170;8.592;2023-04-23T02:22:34;16.40;47.00
17399;DHT22;8817;48.170;8.592;2023-04-23T02:25:01;16.40;47.00
17399;DHT22;8817;48.170;8.592;2023-04-23T02:27:28;16.40;47.00
17399;DHT22;8817;48.170;8.592;2023-04-23T02:29:55;16.40;47.00
17399;DHT22;8817;48.170;8.592;2023-04-23T02:32:23;16.40;47.00
17399;DHT22;8817;48.170;8.592;2023-04-23T02:34:50;16.40;47.10
17399;DHT22;8817;48.170;8.592;2023-04-23T02:37:18;16.40;47.10
17399;DHT22;8817;48.170;8.592;2023-04-23T02:39:45;16.40;47.20
17399;DHT22;8817;48.170;8.592;2023-04-23T02:42:12;16.40;47.20
17399;DHT22;8817;48.170;8.592;2023-04-23T02:44:39;16.50;47.30
17399;DHT22;8817;48.170;8.592;2023-04-23T02:47:06;16.50;47.40
17399;DHT22;8817;48.170;8.592;2023-04-23T02:49:34;16.40;47.30
17399;DHT22;8817;48.170;8.592;2023-04-23T02:52:01;16.40;47.30
17399;DHT22;8817;48.170;8.592;2023-04-23T02:54:28;16.50;47.30
17399;DHT22;8817;48.170;8.592;2023-04-23T02:56:57;16.40;47.20
17399;DHT22;8817;48.170;8.592;2023-04-23T02:59:24;16.50;47.30
17399;DHT22;8817;48.170;8.592;2023-04-23T03:01:51;16.40;47.80
17399;DHT22;8817;48.170;8.592;2023-04-23T03:04:18;16.40;47.80
17399;DHT22;8817;48.170;8.592;2023-04-23T03:06:46;16.40;47.20
17399;DHT22;8817;48.170;8.592;2023-04-23T03:09:13;16.40;47.20
17399;DHT22;8817;48.170;8.592;2023-04-23T03:11:41;16.30;47.10
17399;DHT22;8817;48.170;8.592;2023-04-23T03:14:08;16.30;47.10
17399;DHT22;8817;48.170;8.592;2023-04-23T03:16:35;16.30;47.10
17399;DHT22;8817;48.170;8.592;2023-04-23T03:19:02;16.20;47.10
17399;DHT22;8817;48.170;8.592;2023-04-23T03:21:28;16.20;47.10
17399;DHT22;8817;48.170;8.592;2023-04-23T03:23:57;16.10;47.10
17399;DHT22;8817;48.170;8.592;2023-04-23T03:26:24;16.10;47.10
17399;DHT22;8817;48.170;8.592;2023-04-23T03:28:50;16.00;47.70
17399;DHT22;8817;48.170;8.592;2023-04-23T03:31:17;16.00;47.10
17399;DHT22;8817;48.170;8.592;2023-04-23T03:33:44;16.00;47.20
17399;DHT22;8817;48.170;8.592;2023-04-23T03:36:11;16.00;47.20
17399;DHT22;8817;48.170;8.592;2023-04-23T03:38:38;15.90;47.20
17399;DHT22;8817;48.170;8.592;2023-04-23T03:41:06;15.90;47.20
17399;DHT22;8817;48.170;8.592;2023-04-23T03:43:33;15.90;47.30
17399;DHT22;8817;48.170;8.592;2023-04-23T03:46:00;15.90;47.30
17399;DHT22;8817;48.170;8.592;2023-04-23T03:48:27;15.90;47.30
17399;DHT22;8817;48.170;8.592;2023-04-23T03:50:54;15.90;47.40
17399;DHT22;8817;48.170;8.592;2023-04-23T03:53:20;15.90;47.40
17399;DHT22;8817;48.170;8.592;2023-04-23T03:55:47;15.90;47.40
17399;DHT22;8817;48.170;8.592;2023-04-23T03:58:16;15.90;47.40
17399;DHT22;8817;48.170;8.592;2023-04-23T04:00:43;15.90;47.40
17399;DHT22;8817;48.170;8.592;2023-04-23T04:03:09;15.80;47.40
17399;DHT22;8817;48.170;8.592;2023-04-23T04:05:36;15.90;47.40
17399;DHT22;8817;48.170;8.592;2023-04-23T04:08:03;15.90;47.50
17399;DHT22;8817;48.170;8.592;2023-04-23T04:10:30;15.90;47.50
17399;DHT22;8817;48.170;8.592;2023-04-23T04:12:57;15.90;47.50
17399;DHT22;8817;48.170;8.592;2023-04-23T04:15:25;15.90;47.60
17399;DHT22;8817;48.170;8.592;2023-04-23T04:17:52;15.90;47.60
17399;DHT22;8817;48.170;8.592;2023-04-23T04:20:19;15.90;47.60
17399;DHT22;8817;48.170;8.592;2023-04-23T04:22:46;15.90;47.50
17399;DHT22;8817;48.170;8.592;2023-04-23T04:25:13;15.90;47.50
17399;DHT22;8817;48.170;8.592;2023-04-23T04:27:40;15.90;47.50
17399;DHT22;8817;48.170;8.592;2023-04-23T04:30:09;15.90;47.50
17399;DHT22;8817;48.170;8.592;2023-04-23T04:32:37;15.90;47.50
17399;DHT22;8817;48.170;8.592;2023-04-23T04:35:05;15.90;47.50
17399;DHT22;8817;48.170;8.592;2023-04-23T04:37:33;15.90;47.50
17399;DHT22;8817;48.170;8.592;2023-04-23T04:40:00;15.80;47.50
17399;DHT22;8817;48.170;8.592;2023-04-23T04:42:29;15.80;47.60
17399;DHT22;8817;48.170;8.592;2023-04-23T04:44:56;15.80;47.60
17399;DHT22;8817;48.170;8.592;2023-04-23T04:47:24;15.80;47.70
17399;DHT22;8817;48.170;8.592;2023-04-23T04:49:52;15.80;47.70
17399;DHT22;8817;48.170;8.592;2023-04-23T04:52:22;15.80;47.70
17399;DHT22;8817;48.170;8.592;2023-04-23T04:54:49;15.90;47.80
17399;DHT22;8817;48.170;8.592;2023-04-23T04:57:16;15.90;47.80
17399;DHT22;8817;48.170;8.592;2023-04-23T04:59:43;15.90;47.80
17399;DHT22;8817;48.170;8.592;2023-04-23T05:02:10;15.90;47.80
17399;DHT22;8817;48.170;8.592;2023-04-23T05:04:37;15.90;47.80
17399;DHT22;8817;48.170;8.592;2023-04-23T05:07:05;15.90;47.90
17399;DHT22;8817;48.170;8.592;2023-04-23T05:09:32;15.90;47.90
17399;DHT22;8817;48.170;8.592;2023-04-23T05:11:59;15.90;47.90
17399;DHT22;8817;48.170;8.592;2023-04-23T05:14:27;15.90;47.90
17399;DHT22;8817;48.170;8.592;2023-04-23T05:16:54;15.90;47.90
17399;DHT22;8817;48.170;8.592;2023-04-23T05:19:21;15.90;47.90
17399;DHT22;8817;48.170;8.592;2023-04-23T05:21:48;15.90;47.90
17399;DHT22;8817;48.170;8.592;2023-04-23T05:24:16;15.90;48.00
17399;DHT22;8817;48.170;8.592;2023-04-23T05:26:43;15.90;48.00
17399;DHT22;8817;48.170;8.592;2023-04-23T05:29:10;15.90;48.00
17399;DHT22;8817;48.170;8.592;2023-04-23T05:31:38;15.90;48.10
17399;DHT22;8817;48.170;8.592;2023-04-23T05:34:05;16.00;48.10
17399;DHT22;8817;48.170;8.592;2023-04-23T05:36:32;16.00;48.20
17399;DHT22;8817;48.170;8.592;2023-04-23T05:38:59;16.00;48.70
17399;DHT22;8817;48.170;8.592;2023-04-23T05:41:27;16.00;48.20
17399;DHT22;8817;48.170;8.592;2023-04-23T05:43:54;16.00;48.20
17399;DHT22;8817;48.170;8.592;2023-04-23T05:46:21;16.10;48.30
17399;DHT22;8817;48.170;8.592;2023-04-23T05:48:48;16.10;48.30
17399;DHT22;8817;48.170;8.592;2023-04-23T05:51:14;16.10;48.30
17399;DHT22;8817;48.170;8.592;2023-04-23T05:53:41;16.10;48.30
17399;DHT22;8817;48.170;8.592;2023-04-23T05:56:08;16.10;48.30
17399;DHT22;8817;48.170;8.592;2023-04-23T05:58:36;16.10;48.40
17399;DHT22;8817;48.170;8.592;2023-04-23T06:01:04;16.20;48.40
17399;DHT22;8817;48.170;8.592;2023-04-23T06:03:31;16.20;48.40
17399;DHT22;8817;48.170;8.592;2023-04-23T06:05:58;16.20;48.50
17399;DHT22;8817;48.170;8.592;2023-04-23T06:08:24;16.20;48.40
17399;DHT22;8817;48.170;8.592;2023-04-23T06:10:51;16.20;48.40
17399;DHT22;8817;48.170;8.592;2023-04-23T06:13:20;16.20;48.40
17399;DHT22;8817;48.170;8.592;2023-04-23T06:15:48;16.20;48.40
17399;DHT22;8817;48.170;8.592;2023-04-23T06:18:15;16.20;48.50
17399;DHT22;8817;48.170;8.592;2023-04-23T06:20:42;16.30;48.50
17399;DHT22;8817;48.170;8.592;2023-04-23T06:23:11;16.20;48.50
17399;DHT22;8817;48.170;8.592;2023-04-23T06:25:38;16.20;48.40
17399;DHT22;8817;48.170;8.592;2023-04-23T06:28:05;16.20;48.50
17399;DHT22;8817;48.170;8.592;2023-04-23T06:30:32;16.30;48.50
17399;DHT22;8817;48.170;8.592;2023-04-23T06:33:00;16.30;48.60
17399;DHT22;8817;48.170;8.592;2023-04-23T06:35:28;16.30;48.80
17399;DHT22;8817;48.170;8.592;2023-04-23T06:37:55;16.40;48.90
17399;DHT22;8817;48.170;8.592;2023-04-23T06:40:22;16.40;49.00
17399;DHT22;8817;48.170;8.592;2023-04-23T06:42:49;16.40;49.00
17399;DHT22;8817;48.170;8.592;2023-04-23T06:45:16;16.50;49.10
17399;DHT22;8817;48.170;8.592;2023-04-23T06:47:43;16.70;49.30
17399;DHT22;8817;48.170;8.592;2023-04-23T06:50:11;16.70;49.30
17399;DHT22;8817;48.170;8.592;2023-04-23T06:52:38;16.80;49.30
17399;DHT22;8817;48.170;8.592;2023-04-23T06:55:06;16.90;49.40
17399;DHT22;8817;48.170;8.592;2023-04-23T06:57:33;17.00;49.40
17399;DHT22;8817;48.170;8.592;2023-04-23T07:00:01;17.10;49.30
17399;DHT22;8817;48.170;8.592;2023-04-23T07:02:27;17.20;49.20
17399;DHT22;8817;48.170;8.592;2023-04-23T07:04:54;17.20;49.20
17399;DHT22;8817;48.170;8.592;2023-04-23T07:07:23;17.30;49.20
17399;DHT22;8817;48.170;8.592;2023-04-23T07:09:50;17.30;49.30
17399;DHT22;8817;48.170;8.592;2023-04-23T07:12:17;17.40;49.30
17399;DHT22;8817;48.170;8.592;2023-04-23T07:14:44;17.50;49.30
17399;DHT22;8817;48.170;8.592;2023-04-23T07:17:11;17.50;49.30
17399;DHT22;8817;48.170;8.592;2023-04-23T07:19:38;17.60;49.30
17399;DHT22;8817;48.170;8.592;2023-04-23T07:22:04;17.70;49.30
17399;DHT22;8817;48.170;8.592;2023-04-23T07:24:33;17.70;49.30
17399;DHT22;8817;48.170;8.592;2023-04-23T07:27:00;17.80;49.30
17399;DHT22;8817;48.170;8.592;2023-04-23T07:29:27;17.80;49.10
17399;DHT22;8817;48.170;8.592;2023-04-23T07:31:54;17.80;49.10
17399;DHT22;8817;48.170;8.592;2023-04-23T07:34:21;17.90;49.10
17399;DHT22;8817;48.170;8.592;2023-04-23T07:36:48;17.90;49.00
17399;DHT22;8817;48.170;8.592;2023-04-23T07:39:15;17.90;49.60
17399;DHT22;8817;48.170;8.592;2023-04-23T07:41:43;17.90;49.00
17399;DHT22;8817;48.170;8.592;2023-04-23T07:44:10;17.90;49.00
17399;DHT22;8817;48.170;8.592;2023-04-23T07:46:37;17.90;49.00
17399;DHT22;8817;48.170;8.592;2023-04-23T07:49:04;18.00;49.10
17399;DHT22;8817;48.170;8.592;2023-04-23T07:51:32;18.00;49.10
17399;DHT22;8817;48.170;8.592;2023-04-23T07:53:58;18.00;49.10
17399;DHT22;8817;48.170;8.592;2023-04-23T07:56:25;18.10;49.10
17399;DHT22;8817;48.170;8.592;2023-04-23T07:58:54;18.10;49.10
17399;DHT22;8817;48.170;8.592;2023-04-23T08:01:22;18.10;49.10
17399;DHT22;8817;48.170;8.592;2023-04-23T08:03:50;18.20;49.10
17399;DHT22;8817;48.170;8.592;2023-04-23T08:06:17;18.20;49.20
17399;DHT22;8817;48.170;8.592;2023-04-23T08:08:43;18.30;49.30
17399;DHT22;8817;48.170;8.592;2023-04-23T08:11:11;18.30;49.40
17399;DHT22;8817;48.170;8.592;2023-04-23T08:13:37;18.40;49.50
17399;DHT22;8817;48.170;8.592;2023-04-23T08:16:06;18.50;50.10
17399;DHT22;8817;48.170;8.592;2023-04-23T08:18:33;18.60;49.50
17399;DHT22;8817;48.170;8.592;2023-04-23T08:21:00;18.70;49.50
17399;DHT22;8817;48.170;8.592;2023-04-23T08:23:27;18.80;49.50
17399;DHT22;8817;48.170;8.592;2023-04-23T08:25:54;18.90;49.50
17399;DHT22;8817;48.170;8.592;2023-04-23T08:28:21;19.00;49.50
17399;DHT22;8817;48.170;8.592;2023-04-23T08:30:48;19.10;49.40
17399;DHT22;8817;48.170;8.592;2023-04-23T08:33:16;19.20;49.40
17399;DHT22;8817;48.170;8.592;2023-04-23T08:35:43;19.30;49.50
17399;DHT22;8817;48.170;8.592;2023-04-23T08:38:10;19.40;49.40
17399;DHT22;8817;48.170;8.592;2023-04-23T08:40:37;19.50;49.20
17399;DHT22;8817;48.170;8.592;2023-04-23T08:43:10;19.50;49.00
17399;DHT22;8817;48.170;8.592;2023-04-23T08:45:39;19.60;49.00
17399;DHT22;8817;48.170;8.592;2023-04-23T08:48:08;19.60;48.90
17399;DHT22;8817;48.170;8.592;2023-04-23T08:50:37;19.60;48.60
17399;DHT22;8817;48.170;8.592;2023-04-23T08:53:08;19.60;48.50
17399;DHT22;8817;48.170;8.592;2023-04-23T08:55:35;19.60;48.50
17399;DHT22;8817;48.170;8.592;2023-04-23T08:58:03;19.50;48.40
17399;DHT22;8817;48.170;8.592;2023-04-23T09:00:31;19.50;48.40
17399;DHT22;8817;48.170;8.592;2023-04-23T09:02:58;19.50;48.40
17399;DHT22;8817;48.170;8.592;2023-04-23T09:05:26;19.50;49.10
17399;DHT22;8817;48.170;8.592;2023-04-23T09:07:56;19.50;48.60
17399;DHT22;8817;48.170;8.592;2023-04-23T09:10:24;19.50;48.60
17399;DHT22;8817;48.170;8.592;2023-04-23T09:12:51;19.50;48.70
17399;DHT22;8817;48.170;8.592;2023-04-23T09:15:18;19.50;48.70
17399;DHT22;8817;48.170;8.592;2023-04-23T09:17:46;19.60;48.80
17399;DHT22;8817;48.170;8.592;2023-04-23T09:20:14;19.60;48.70
17399;DHT22;8817;48.170;8.592;2023-04-23T09:22:43;19.60;48.60
17399;DHT22;8817;48.170;8.592;2023-04-23T09:25:13;19.70;48.70
17399;DHT22;8817;48.170;8.592;2023-04-23T09:27:40;19.60;48.50
17399;DHT22;8817;48.170;8.592;2023-04-23T09:30:09;19.70;48.70
17399;DHT22;8817;48.170;8.592;2023-04-23T09:32:37;19.70;48.70
17399;DHT22;8817;48.170;8.592;2023-04-23T09:35:06;19.70;48.70
17399;DHT22;8817;48.170;8.592;2023-04-23T09:37:34;19.70;48.80
17399;DHT22;8817;48.170;8.592;2023-04-23T09:40:02;19.80;48.90
17399;DHT22;8817;48.170;8.592;2023-04-23T09:42:32;19.80;49.40
17399;DHT22;8817;48.170;8.592;2023-04-23T09:45:02;19.80;48.80
17399;DHT22;8817;48.170;8.592;2023-04-23T09:47:31;19.90;48.90
17399;DHT22;8817;48.170;8.592;2023-04-23T09:49:59;19.90;48.90
17399;DHT22;8817;48.170;8.592;2023-04-23T09:52:26;20.00;48.90
17399;DHT22;8817;48.170;8.592;2023-04-23T09:54:55;20.10;49.00
17399;DHT22;8817;48.170;8.592;2023-04-23T09:57:24;20.20;49.00
17399;DHT22;8817;48.170;8.592;2023-04-23T09:59:53;20.20;48.90
17399;DHT22;8817;48.170;8.592;2023-04-23T10:02:26;20.30;48.90
17399;DHT22;8817;48.170;8.592;2023-04-23T10:04:53;20.30;48.80
17399;DHT22;8817;48.170;8.592;2023-04-23T10:07:19;20.40;48.80
17399;DHT22;8817;48.170;8.592;2023-04-23T10:09:47;20.50;48.90
17399;DHT22;8817;48.170;8.592;2023-04-23T10:12:14;20.50;48.90
17399;DHT22;8817;48.170;8.592;2023-04-23T10:14:42;20.60;48.90
17399;DHT22;8817;48.170;8.592;2023-04-23T10:17:11;20.70;48.90
17399;DHT22;8817;48.170;8.592;2023-04-23T10:19:38;20.70;48.90
17399;DHT22;8817;48.170;8.592;2023-04-23T10:22:09;20.80;48.90
17399;DHT22;8817;48.170;8.592;2023-04-23T10:24:38;20.90;48.80
17399;DHT22;8817;48.170;8.592;2023-04-23T10:27:10;20.90;48.60
17399;DHT22;8817;48.170;8.592;2023-04-23T10:29:37;20.90;48.40
17399;DHT22;8817;48.170;8.592;2023-04-23T10:32:05;21.00;48.30
17399;DHT22;8817;48.170;8.592;2023-04-23T10:34:34;20.90;48.20
17399;DHT22;8817;48.170;8.592;2023-04-23T10:37:01;20.90;48.10
17399;DHT22;8817;48.170;8.592;2023-04-23T10:39:31;20.90;48.20
17399;DHT22;8817;48.170;8.592;2023-04-23T10:41:58;20.90;48.20
17399;DHT22;8817;48.170;8.592;2023-04-23T10:44:32;20.90;48.20
17399;DHT22;8817;48.170;8.592;2023-04-23T10:46:59;20.90;48.20
17399;DHT22;8817;48.170;8.592;2023-04-23T10:49:29;20.90;48.20
17399;DHT22;8817;48.170;8.592;2023-04-23T10:52:02;20.90;48.10
17399;DHT22;8817;48.170;8.592;2023-04-23T10:54:31;20.80;48.00
17399;DHT22;8817;48.170;8.592;2023-04-23T10:56:59;20.80;48.10
17399;DHT22;8817;48.170;8.592;2023-04-23T10:59:28;20.80;48.00
17399;DHT22;8817;48.170;8.592;2023-04-23T11:01:57;20.80;48.00
17399;DHT22;8817;48.170;8.592;2023-04-23T11:04:26;20.80;47.90
17399;DHT22;8817;48.170;8.592;2023-04-23T11:06:55;20.70;47.90
17399;DHT22;8817;48.170;8.592;2023-04-23T11:09:35;20.70;47.90
17399;DHT22;8817;48.170;8.592;2023-04-23T11:12:05;20.60;47.90
17399;DHT22;8817;48.170;8.592;2023-04-23T11:14:34;20.70;48.00
17399;DHT22;8817;48.170;8.592;2023-04-23T11:17:02;20.70;48.00
17399;DHT22;8817;48.170;8.592;2023-04-23T11:19:29;20.60;48.00
17399;DHT22;8817;48.170;8.592;2023-04-23T11:22:00;20.70;48.00
17399;DHT22;8817;48.170;8.592;2023-04-23T11:24:30;20.60;48.00
17399;DHT22;8817;48.170;8.592;2023-04-23T11:26:58;20.60;48.00
17399;DHT22;8817;48.170;8.592;2023-04-23T11:29:26;20.70;48.10
17399;DHT22;8817;48.170;8.592;2023-04-23T11:31:54;20.70;48.20
17399;DHT22;8817;48.170;8.592;2023-04-23T11:34:21;20.70;48.20
17399;DHT22;8817;48.170;8.592;2023-04-23T11:36:51;20.70;48.30
17399;DHT22;8817;48.170;8.592;2023-04-23T11:39:18;20.80;48.20
17399;DHT22;8817;48.170;8.592;2023-04-23T11:41:46;20.80;48.20
17399;DHT22;8817;48.170;8.592;2023-04-23T11:44:14;20.80;48.10
17399;DHT22;8817;48.170;8.592;2023-04-23T11:46:41;20.90;48.20
17399;DHT22;8817;48.170;8.592;2023-04-23T11:49:08;20.90;48.10
17399;DHT22;8817;48.170;8.592;2023-04-23T11:51:40;21.00;48.00
17399;DHT22;8817;48.170;8.592;2023-04-23T11:54:08;21.10;48.10
17399;DHT22;8817;48.170;8.592;2023-04-23T11:56:35;21.20;48.10
17399;DHT22;8817;48.170;8.592;2023-04-23T11:59:05;21.20;48.10
17399;DHT22;8817;48.170;8.592;2023-04-23T12:01:45;21.20;48.00
17399;DHT22;8817;48.170;8.592;2023-04-23T12:04:14;21.20;47.90
17399;DHT22;8817;48.170;8.592;2023-04-23T12:06:42;21.30;47.80
17399;DHT22;8817;48.170;8.592;2023-04-23T12:09:10;21.40;47.70
17399;DHT22;8817;48.170;8.592;2023-04-23T12:11:38;21.40;47.70
17399;DHT22;8817;48.170;8.592;2023-04-23T12:14:07;21.40;47.70
17399;DHT22;8817;48.170;8.592;2023-04-23T12:16:36;21.40;47.70
17399;DHT22;8817;48.170;8.592;2023-04-23T12:19:06;21.50;47.60
17399;DHT22;8817;48.170;8.592;2023-04-23T12:21:33;21.50;47.50
17399;DHT22;8817;48.170;8.592;2023-04-23T12:24:02;21.50;47.50
17399;DHT22;8817;48.170;8.592;2023-04-23T12:26:30;21.50;47.30
17399;DHT22;8817;48.170;8.592;2023-04-23T12:28:58;21.60;47.30
17399;DHT22;8817;48.170;8.592;2023-04-23T12:31:27;21.60;47.30
17399;DHT22;8817;48.170;8.592;2023-04-23T12:34:00;21.60;47.20
17399;DHT22;8817;48.170;8.592;2023-04-23T12:36:29;21.60;47.30
17399;DHT22;8817;48.170;8.592;2023-04-23T12:39:17;21.60;47.30
17399;DHT22;8817;48.170;8.592;2023-04-23T12:41:44;21.70;47.20
17399;DHT22;8817;48.170;8.592;2023-04-23T12:44:11;21.70;47.00
17399;DHT22;8817;48.170;8.592;2023-04-23T12:46:39;21.70;46.90
17399;DHT22;8817;48.170;8.592;2023-04-23T12:49:06;21.70;46.80
17399;DHT22;8817;48.170;8.592;2023-04-23T12:51:33;21.70;47.40
17399;DHT22;8817;48.170;8.592;2023-04-23T12:53:59;21.70;46.80
17399;DHT22;8817;48.170;8.592;2023-04-23T12:56:26;21.70;46.80
17399;DHT22;8817;48.170;8.592;2023-04-23T12:58:54;21.70;46.90
17399;DHT22;8817;48.170;8.592;2023-04-23T13:01:21;21.60;47.40
17399;DHT22;8817;48.170;8.592;2023-04-23T13:03:49;21.60;46.80
17399;DHT22;8817;48.170;8.592;2023-04-23T13:06:16;21.60;46.80
17399;DHT22;8817;48.170;8.592;2023-04-23T13:08:43;21.60;46.70
17399;DHT22;8817;48.170;8.592;2023-04-23T13:11:10;21.60;46.70
17399;DHT22;8817;48.170;8.592;2023-04-23T13:13:37;21.60;46.70
17399;DHT22;8817;48.170;8.592;2023-04-23T13:16:04;21.60;46.80
17399;DHT22;8817;48.170;8.592;2023-04-23T13:18:31;21.60;46.70
17399;DHT22;8817;48.170;8.592;2023-04-23T13:20:59;21.60;46.70
17399;DHT22;8817;48.170;8.592;2023-04-23T13:23:26;21.60;46.70
17399;DHT22;8817;48.170;8.592;2023-04-23T13:25:53;21.60;46.60
17399;DHT22;8817;48.170;8.592;2023-04-23T13:28:20;21.70;46.70
17399;DHT22;8817;48.170;8.592;2023-04-23T13:30:46;21.70;46.70
17399;DHT22;8817;48.170;8.592;2023-04-23T13:33:13;21.80;46.70
17399;DHT22;8817;48.170;8.592;2023-04-23T13:35:40;21.80;46.80
17399;DHT22;8817;48.170;8.592;2023-04-23T13:38:09;21.80;46.70
17399;DHT22;8817;48.170;8.592;2023-04-23T13:40:36;21.90;46.70
17399;DHT22;8817;48.170;8.592;2023-04-23T13:43:04;21.90;46.60
17399;DHT22;8817;48.170;8.592;2023-04-23T13:45:31;21.90;46.50
17399;DHT22;8817;48.170;8.592;2023-04-23T13:47:57;22.00;46.40
17399;DHT22;8817;48.170;8.592;2023-04-23T13:50:26;21.90;46.20
17399;DHT22;8817;48.170;8.592;2023-04-23T13:52:53;21.90;46.20
17399;DHT22;8817;48.170;8.592;2023-04-23T13:55:22;21.90;46.10
17399;DHT22;8817;48.170;8.592;2023-04-23T13:57:49;21.90;46.20
17399;DHT22;8817;48.170;8.592;2023-04-23T14:00:16;21.80;46.20
17399;DHT22;8817;48.170;8.592;2023-04-23T14:02:43;21.80;46.20
17399;DHT22;8817;48.170;8.592;2023-04-23T14:05:10;21.80;46.20
17399;DHT22;8817;48.170;8.592;2023-04-23T14:07:37;21.80;46.20
17399;DHT22;8817;48.170;8.592;2023-04-23T14:10:05;21.80;46.20
17399;DHT22;8817;48.170;8.592;2023-04-23T14:12:33;21.80;46.10
17399;DHT22;8817;48.170;8.592;2023-04-23T14:15:00;21.80;46.00
17399;DHT22;8817;48.170;8.592;2023-04-23T14:17:27;21.80;46.00
17399;DHT22;8817;48.170;8.592;2023-04-23T14:19:53;21.80;46.00
17399;DHT22;8817;48.170;8.592;2023-04-23T14:22:20;21.80;46.00
17399;DHT22;8817;48.170;8.592;2023-04-23T14:24:49;21.70;45.80
17399;DHT22;8817;48.170;8.592;2023-04-23T14:27:16;21.70;45.90
17399;DHT22;8817;48.170;8.592;2023-04-23T14:29:50;21.70;45.90
17399;DHT22;8817;48.170;8.592;2023-04-23T14:32:17;21.70;45.90
17399;DHT22;8817;48.170;8.592;2023-04-23T14:34:44;21.70;45.90
17399;DHT22;8817;48.170;8.592;2023-04-23T14:37:11;21.70;45.90
17399;DHT22;8817;48.170;8.592;2023-04-23T14:39:39;21.70;45.90
17399;DHT22;8817;48.170;8.592;2023-04-23T14:42:06;21.70;45.90
17399;DHT22;8817;48.170;8.592;2023-04-23T14:44:33;21.70;45.90
17399;DHT22;8817;48.170;8.592;2023-04-23T14:47:01;21.70;45.90
17399;DHT22;8817;48.170;8.592;2023-04-23T14:49:28;21.70;45.90
17399;DHT22;8817;48.170;8.592;2023-04-23T14:51:55;21.70;46.00
17399;DHT22;8817;48.170;8.592;2023-04-23T14:54:22;21.70;46.00
17399;DHT22;8817;48.170;8.592;2023-04-23T14:56:50;21.70;46.00
17399;DHT22;8817;48.170;8.592;2023-04-23T14:59:17;21.80;46.00
17399;DHT22;8817;48.170;8.592;2023-04-23T15:01:44;21.80;46.00
17399;DHT22;8817;48.170;8.592;2023-04-23T15:04:12;21.80;46.00
17399;DHT22;8817;48.170;8.592;2023-04-23T15:06:39;21.90;45.90
17399;DHT22;8817;48.170;8.592;2023-04-23T15:09:06;21.80;45.70
17399;DHT22;8817;48.170;8.592;2023-04-23T15:11:33;21.80;45.60
17399;DHT22;8817;48.170;8.592;2023-04-23T15:14:06;21.80;46.10
17399;DHT22;8817;48.170;8.592;2023-04-23T15:16:34;21.70;45.50
17399;DHT22;8817;48.170;8.592;2023-04-23T15:19:03;21.50;44.60
17399;DHT22;8817;48.170;8.592;2023-04-23T15:21:32;21.10;43.80
17399;DHT22;8817;48.170;8.592;2023-04-23T15:23:59;20.70;43.70
17399;DHT22;8817;48.170;8.592;2023-04-23T15:26:26;20.30;44.00
17399;DHT22;8817;48.170;8.592;2023-04-23T15:28:54;19.90;44.70
17399;DHT22;8817;48.170;8.592;2023-04-23T15:31:21;19.50;44.60
17399;DHT22;8817;48.170;8.592;2023-04-23T15:33:48;19.20;44.90
17399;DHT22;8817;48.170;8.592;2023-04-23T15:36:15;19.00;45.10
17399;DHT22;8817;48.170;8.592;2023-04-23T15:38:43;18.80;45.30
17399;DHT22;8817;48.170;8.592;2023-04-23T15:41:10;18.60;45.50
17399;DHT22;8817;48.170;8.592;2023-04-23T15:43:37;18.50;45.70
17399;DHT22;8817;48.170;8.592;2023-04-23T15:46:04;18.40;45.90
17399;DHT22;8817;48.170;8.592;2023-04-23T15:48:31;18.30;46.00